sensor_id;sensor_type;location;lat;lon;timestamp;P1;durP1;ratioP1;P2;durP2;ratioP2
1020;SDS011;499;42.648;23.270;2023-05-07T00:00:55;2.50;;;2.17;;
1020;SDS011;499;42.648;23.270;2023-05-07T00:03:26;1.80;;;1.57;;
1020;SDS011;499;42.648;23.270;2023-05-07T00:05:53;1.80;;;1.57;;
1020;SDS011;499;42.648;23.270;2023-05-07T00:08:20;2.40;;;2.07;;
1020;SDS011;499;42.648;23.270;2023-05-07T00:10:47;2.00;;;1.70;;
1020;SDS011;499;42.648;23.270;2023-05-07T00:13:14;2.53;;;2.33;;
1020;SDS011;499;42.648;23.270;2023-05-07T00:15:41;2.33;;;2.13;;
1020;SDS011;499;42.648;23.270;2023-05-07T00:18:08;1.80;;;1.70;;
1020;SDS011;499;42.648;23.270;2023-05-07T00:20:37;2.30;;;2.07;;
1020;SDS011;499;42.648;23.270;2023-05-07T00:23:04;2.43;;;2.20;;
1020;SDS011;499;42.648;23.270;2023-05-07T00:25:31;1.87;;;1.67;;
1020;SDS011;499;42.648;23.270;2023-05-07T00:27:58;2.60;;;2.40;;
1020;SDS011;499;42.648;23.270;2023-05-07T00:30:28;2.27;;;1.87;;
1020;SDS011;499;42.648;23.270;2023-05-07T00:32:56;1.73;;;1.63;;
1020;SDS011;499;42.648;23.270;2023-05-07T00:35:23;2.83;;;1.87;;
1020;SDS011;499;42.648;23.270;2023-05-07T00:37:51;1.90;;;1.80;;
1020;SDS011;499;42.648;23.270;2023-05-07T00:40:18;1.60;;;1.40;;
1020;SDS011;499;42.648;23.270;2023-05-07T00:42:45;2.27;;;1.90;;
1020;SDS011;499;42.648;23.270;2023-05-07T00:45:14;2.50;;;2.27;;
1020;SDS011;499;42.648;23.270;2023-05-07T00:47:41;1.60;;;1.50;;
1020;SDS011;499;42.648;23.270;2023-05-07T00:50:09;9.37;;;2.90;;
1020;SDS011;499;42.648;23.270;2023-05-07T00:52:37;2.40;;;2.20;;
1020;SDS011;499;42.648;23.270;2023-05-07T00:55:07;2.40;;;2.20;;
1020;SDS011;499;42.648;23.270;2023-05-07T00:57:35;2.63;;;2.20;;
1020;SDS011;499;42.648;23.270;2023-05-07T01:00:04;2.10;;;1.90;;
1020;SDS011;499;42.648;23.270;2023-05-07T01:02:33;4.37;;;2.07;;
1020;SDS011;499;42.648;23.270;2023-05-07T01:05:00;2.43;;;2.23;;
1020;SDS011;499;42.648;23.270;2023-05-07T01:07:29;2.30;;;1.60;;
1020;SDS011;499;42.648;23.270;2023-05-07T01:09:56;2.90;;;2.40;;
1020;SDS011;499;42.648;23.270;2023-05-07T01:12:26;2.50;;;2.30;;
1020;SDS011;499;42.648;23.270;2023-05-07T01:14:54;2.30;;;2.10;;
1020;SDS011;499;42.648;23.270;2023-05-07T01:17:21;1.90;;;1.70;;
1020;SDS011;499;42.648;23.270;2023-05-07T01:19:49;3.57;;;3.27;;
1020;SDS011;499;42.648;23.270;2023-05-07T01:22:23;2.40;;;2.20;;
1020;SDS011;499;42.648;23.270;2023-05-07T01:24:57;2.57;;;2.37;;
1020;SDS011;499;42.648;23.270;2023-05-07T01:27:24;3.23;;;2.93;;
1020;SDS011;499;42.648;23.270;2023-05-07T01:29:51;2.60;;;2.40;;
1020;SDS011;499;42.648;23.270;2023-05-07T01:32:19;2.37;;;2.17;;
1020;SDS011;499;42.648;23.270;2023-05-07T01:34:53;2.60;;;2.40;;
1020;SDS011;499;42.648;23.270;2023-05-07T01:37:23;3.67;;;3.30;;
1020;SDS011;499;42.648;23.270;2023-05-07T01:39:51;3.57;;;3.27;;
1020;SDS011;499;42.648;23.270;2023-05-07T01:42:19;2.47;;;2.27;;
1020;SDS011;499;42.648;23.270;2023-05-07T01:44:46;3.27;;;2.80;;
1020;SDS011;499;42.648;23.270;2023-05-07T01:47:13;2.67;;;2.47;;
1020;SDS011;499;42.648;23.270;2023-05-07T01:49:41;2.80;;;2.43;;
1020;SDS011;499;42.648;23.270;2023-05-07T01:52:09;2.60;;;2.27;;
1020;SDS011;499;42.648;23.270;2023-05-07T01:54:38;2.20;;;2.10;;
1020;SDS011;499;42.648;23.270;2023-05-07T01:57:06;2.73;;;2.47;;
1020;SDS011;499;42.648;23.270;2023-05-07T01:59:33;2.37;;;2.07;;
1020;SDS011;499;42.648;23.270;2023-05-07T02:02:00;3.20;;;2.67;;
1020;SDS011;499;42.648;23.270;2023-05-07T02:04:27;3.50;;;2.30;;
1020;SDS011;499;42.648;23.270;2023-05-07T02:06:54;2.87;;;2.57;;
1020;SDS011;499;42.648;23.270;2023-05-07T02:09:21;3.30;;;3.00;;
1020;SDS011;499;42.648;23.270;2023-05-07T02:11:50;2.50;;;2.30;;
1020;SDS011;499;42.648;23.270;2023-05-07T02:14:16;3.30;;;2.67;;
1020;SDS011;499;42.648;23.270;2023-05-07T02:16:45;2.93;;;2.13;;
1020;SDS011;499;42.648;23.270;2023-05-07T02:19:12;2.23;;;1.60;;
1020;SDS011;499;42.648;23.270;2023-05-07T02:21:39;3.17;;;2.90;;
1020;SDS011;499;42.648;23.270;2023-05-07T02:24:06;3.87;;;3.20;;
1020;SDS011;499;42.648;23.270;2023-05-07T02:26:33;3.00;;;2.70;;
1020;SDS011;499;42.648;23.270;2023-05-07T02:29:01;3.00;;;2.80;;
1020;SDS011;499;42.648;23.270;2023-05-07T02:31:28;3.50;;;3.20;;
1020;SDS011;499;42.648;23.270;2023-05-07T02:33:55;2.63;;;2.27;;
1020;SDS011;499;42.648;23.270;2023-05-07T02:36:22;2.77;;;2.50;;
1020;SDS011;499;42.648;23.270;2023-05-07T02:38:49;2.93;;;2.30;;
1020;SDS011;499;42.648;23.270;2023-05-07T02:41:16;1.83;;;1.73;;
1020;SDS011;499;42.648;23.270;2023-05-07T02:43:43;2.43;;;2.23;;
1020;SDS011;499;42.648;23.270;2023-05-07T02:46:12;2.70;;;2.30;;
1020;SDS011;499;42.648;23.270;2023-05-07T02:48:38;2.90;;;2.27;;
1020;SDS011;499;42.648;23.270;2023-05-07T02:51:06;2.83;;;2.57;;
1020;SDS011;499;42.648;23.270;2023-05-07T02:53:32;2.60;;;2.40;;
1020;SDS011;499;42.648;23.270;2023-05-07T02:56:00;2.70;;;2.50;;
1020;SDS011;499;42.648;23.270;2023-05-07T02:58:28;2.80;;;2.20;;
1020;SDS011;499;42.648;23.270;2023-05-07T03:00:55;2.90;;;2.50;;
1020;SDS011;499;42.648;23.270;2023-05-07T03:03:23;2.43;;;2.23;;
1020;SDS011;499;42.648;23.270;2023-05-07T03:05:50;3.10;;;2.50;;
1020;SDS011;499;42.648;23.270;2023-05-07T03:08:17;1.87;;;1.57;;
1020;SDS011;499;42.648;23.270;2023-05-07T03:10:44;2.20;;;2.00;;
1020;SDS011;499;42.648;23.270;2023-05-07T03:13:11;1.33;;;1.23;;
1020;SDS011;499;42.648;23.270;2023-05-07T03:15:38;2.37;;;2.17;;
1020;SDS011;499;42.648;23.270;2023-05-07T03:18:05;2.77;;;2.53;;
1020;SDS011;499;42.648;23.270;2023-05-07T03:20:33;1.90;;;1.73;;
1020;SDS011;499;42.648;23.270;2023-05-07T03:23:01;3.90;;;2.83;;
1020;SDS011;499;42.648;23.270;2023-05-07T03:25:28;2.50;;;2.30;;
1020;SDS011;499;42.648;23.270;2023-05-07T03:27:56;3.37;;;3.07;;
1020;SDS011;499;42.648;23.270;2023-05-07T03:30:23;2.50;;;2.30;;
1020;SDS011;499;42.648;23.270;2023-05-07T03:32:50;3.00;;;2.57;;
1020;SDS011;499;42.648;23.270;2023-05-07T03:35:17;1.83;;;1.63;;
1020;SDS011;499;42.648;23.270;2023-05-07T03:37:45;1.30;;;1.00;;
1020;SDS011;499;42.648;23.270;2023-05-07T03:40:12;2.93;;;2.67;;
1020;SDS011;499;42.648;23.270;2023-05-07T03:42:40;3.50;;;3.20;;
1020;SDS011;499;42.648;23.270;2023-05-07T03:45:07;2.87;;;2.47;;
1020;SDS011;499;42.648;23.270;2023-05-07T03:47:35;2.70;;;2.50;;
1020;SDS011;499;42.648;23.270;2023-05-07T03:50:02;3.17;;;2.87;;
1020;SDS011;499;42.648;23.270;2023-05-07T03:52:29;3.20;;;2.90;;
1020;SDS011;499;42.648;23.270;2023-05-07T03:54:58;3.10;;;2.80;;
1020;SDS011;499;42.648;23.270;2023-05-07T03:57:25;2.63;;;2.40;;
1020;SDS011;499;42.648;23.270;2023-05-07T03:59:52;3.83;;;2.90;;
1020;SDS011;499;42.648;23.270;2023-05-07T04:02:19;3.90;;;3.20;;
1020;SDS011;499;42.648;23.270;2023-05-07T04:04:46;3.30;;;3.00;;
1020;SDS011;499;42.648;23.270;2023-05-07T04:07:15;3.23;;;2.93;;
1020;SDS011;499;42.648;23.270;2023-05-07T04:09:42;4.87;;;4.00;;
1020;SDS011;499;42.648;23.270;2023-05-07T04:12:10;3.77;;;3.47;;
1020;SDS011;499;42.648;23.270;2023-05-07T04:14:37;3.40;;;2.90;;
1020;SDS011;499;42.648;23.270;2023-05-07T04:17:04;4.30;;;3.20;;
1020;SDS011;499;42.648;23.270;2023-05-07T04:19:33;4.47;;;3.87;;
1020;SDS011;499;42.648;23.270;2023-05-07T04:22:00;3.60;;;3.10;;
1020;SDS011;499;42.648;23.270;2023-05-07T04:24:27;9.50;;;4.60;;
1020;SDS011;499;42.648;23.270;2023-05-07T04:26:57;3.80;;;3.40;;
1020;SDS011;499;42.648;23.270;2023-05-07T04:29:26;3.33;;;3.00;;
1020;SDS011;499;42.648;23.270;2023-05-07T04:31:53;4.90;;;4.13;;
1020;SDS011;499;42.648;23.270;2023-05-07T04:34:21;4.37;;;3.97;;
1020;SDS011;499;42.648;23.270;2023-05-07T04:36:48;5.93;;;4.10;;
1020;SDS011;499;42.648;23.270;2023-05-07T04:39:15;4.33;;;3.77;;
1020;SDS011;499;42.648;23.270;2023-05-07T04:41:43;3.90;;;3.13;;
1020;SDS011;499;42.648;23.270;2023-05-07T04:44:10;3.17;;;2.83;;
1020;SDS011;499;42.648;23.270;2023-05-07T04:46:38;3.30;;;2.93;;
1020;SDS011;499;42.648;23.270;2023-05-07T04:49:05;5.03;;;4.13;;
1020;SDS011;499;42.648;23.270;2023-05-07T04:51:32;3.47;;;3.17;;
1020;SDS011;499;42.648;23.270;2023-05-07T04:53:59;3.40;;;2.90;;
1020;SDS011;499;42.648;23.270;2023-05-07T04:56:27;3.77;;;3.23;;
1020;SDS011;499;42.648;23.270;2023-05-07T04:58:55;5.57;;;4.23;;
1020;SDS011;499;42.648;23.270;2023-05-07T05:01:22;3.50;;;3.10;;
1020;SDS011;499;42.648;23.270;2023-05-07T05:03:50;3.47;;;2.70;;
1020;SDS011;499;42.648;23.270;2023-05-07T05:06:17;2.97;;;2.70;;
1020;SDS011;499;42.648;23.270;2023-05-07T05:08:44;3.23;;;2.93;;
1020;SDS011;499;42.648;23.270;2023-05-07T05:11:11;3.87;;;2.83;;
1020;SDS011;499;42.648;23.270;2023-05-07T05:13:38;5.03;;;2.97;;
1020;SDS011;499;42.648;23.270;2023-05-07T05:16:05;3.73;;;3.03;;
1020;SDS011;499;42.648;23.270;2023-05-07T05:18:32;3.10;;;2.80;;
1020;SDS011;499;42.648;23.270;2023-05-07T05:21:00;4.10;;;3.70;;
1020;SDS011;499;42.648;23.270;2023-05-07T05:23:27;4.10;;;3.70;;
1020;SDS011;499;42.648;23.270;2023-05-07T05:25:55;3.80;;;3.40;;
1020;SDS011;499;42.648;23.270;2023-05-07T05:28:23;3.10;;;2.80;;
1020;SDS011;499;42.648;23.270;2023-05-07T05:30:50;3.00;;;2.30;;
1020;SDS011;499;42.648;23.270;2023-05-07T05:33:17;2.87;;;2.47;;
1020;SDS011;499;42.648;23.270;2023-05-07T05:35:44;4.97;;;2.90;;
1020;SDS011;499;42.648;23.270;2023-05-07T05:38:12;2.53;;;2.33;;
1020;SDS011;499;42.648;23.270;2023-05-07T05:40:39;2.47;;;2.27;;
1020;SDS011;499;42.648;23.270;2023-05-07T05:43:06;3.30;;;2.93;;
1020;SDS011;499;42.648;23.270;2023-05-07T05:45:33;2.67;;;2.40;;
1020;SDS011;499;42.648;23.270;2023-05-07T05:48:00;4.03;;;2.80;;
1020;SDS011;499;42.648;23.270;2023-05-07T05:50:27;3.13;;;2.53;;
1020;SDS011;499;42.648;23.270;2023-05-07T05:52:55;3.60;;;2.80;;
1020;SDS011;499;42.648;23.270;2023-05-07T05:55:24;3.10;;;2.47;;
1020;SDS011;499;42.648;23.270;2023-05-07T05:57:51;4.20;;;2.83;;
1020;SDS011;499;42.648;23.270;2023-05-07T06:00:18;3.43;;;2.60;;
1020;SDS011;499;42.648;23.270;2023-05-07T06:02:47;3.13;;;2.83;;
1020;SDS011;499;42.648;23.270;2023-05-07T06:05:15;3.70;;;3.20;;
1020;SDS011;499;42.648;23.270;2023-05-07T06:07:42;2.83;;;2.43;;
1020;SDS011;499;42.648;23.270;2023-05-07T06:10:09;2.93;;;2.50;;
1020;SDS011;499;42.648;23.270;2023-05-07T06:12:37;3.50;;;2.33;;
1020;SDS011;499;42.648;23.270;2023-05-07T06:15:05;3.70;;;2.50;;
1020;SDS011;499;42.648;23.270;2023-05-07T06:17:32;5.90;;;2.50;;
1020;SDS011;499;42.648;23.270;2023-05-07T06:20:00;3.77;;;2.63;;
1020;SDS011;499;42.648;23.270;2023-05-07T06:22:27;3.53;;;2.60;;
1020;SDS011;499;42.648;23.270;2023-05-07T06:24:54;2.60;;;1.87;;
1020;SDS011;499;42.648;23.270;2023-05-07T06:27:21;2.30;;;2.10;;
1020;SDS011;499;42.648;23.270;2023-05-07T06:29:49;3.93;;;2.63;;
1020;SDS011;499;42.648;23.270;2023-05-07T06:32:16;4.80;;;3.60;;
1020;SDS011;499;42.648;23.270;2023-05-07T06:34:44;3.87;;;3.27;;
1020;SDS011;499;42.648;23.270;2023-05-07T06:37:11;4.30;;;3.60;;
1020;SDS011;499;42.648;23.270;2023-05-07T06:39:38;2.60;;;2.13;;
1020;SDS011;499;42.648;23.270;2023-05-07T06:42:05;2.73;;;2.30;;
1020;SDS011;499;42.648;23.270;2023-05-07T06:44:32;3.13;;;2.83;;
1020;SDS011;499;42.648;23.270;2023-05-07T06:47:00;3.03;;;2.73;;
1020;SDS011;499;42.648;23.270;2023-05-07T06:49:27;3.30;;;3.00;;
1020;SDS011;499;42.648;23.270;2023-05-07T06:51:54;2.73;;;2.50;;
1020;SDS011;499;42.648;23.270;2023-05-07T06:54:22;2.37;;;2.17;;
1020;SDS011;499;42.648;23.270;2023-05-07T06:56:49;4.00;;;2.47;;
1020;SDS011;499;42.648;23.270;2023-05-07T06:59:16;2.87;;;2.33;;
1020;SDS011;499;42.648;23.270;2023-05-07T07:01:44;2.63;;;2.17;;
1020;SDS011;499;42.648;23.270;2023-05-07T07:04:12;2.90;;;2.23;;
1020;SDS011;499;42.648;23.270;2023-05-07T07:06:39;2.40;;;2.20;;
1020;SDS011;499;42.648;23.270;2023-05-07T07:09:06;3.07;;;2.53;;
1020;SDS011;499;42.648;23.270;2023-05-07T07:11:33;3.20;;;2.90;;
1020;SDS011;499;42.648;23.270;2023-05-07T07:14:01;2.33;;;2.10;;
1020;SDS011;499;42.648;23.270;2023-05-07T07:16:28;3.17;;;2.80;;
1020;SDS011;499;42.648;23.270;2023-05-07T07:18:55;2.87;;;2.10;;
1020;SDS011;499;42.648;23.270;2023-05-07T07:21:23;2.20;;;1.73;;
1020;SDS011;499;42.648;23.270;2023-05-07T07:23:50;2.37;;;1.73;;
1020;SDS011;499;42.648;23.270;2023-05-07T07:26:17;2.43;;;2.10;;
1020;SDS011;499;42.648;23.270;2023-05-07T07:28:44;2.30;;;2.10;;
1020;SDS011;499;42.648;23.270;2023-05-07T07:31:12;2.20;;;2.00;;
1020;SDS011;499;42.648;23.270;2023-05-07T07:33:39;3.10;;;1.70;;
1020;SDS011;499;42.648;23.270;2023-05-07T07:36:06;2.10;;;1.90;;
1020;SDS011;499;42.648;23.270;2023-05-07T07:38:35;2.47;;;2.10;;
1020;SDS011;499;42.648;23.270;2023-05-07T07:41:02;3.53;;;1.90;;
1020;SDS011;499;42.648;23.270;2023-05-07T07:43:29;2.60;;;2.10;;
1020;SDS011;499;42.648;23.270;2023-05-07T07:45:56;2.53;;;2.30;;
1020;SDS011;499;42.648;23.270;2023-05-07T07:48:23;2.43;;;2.23;;
1020;SDS011;499;42.648;23.270;2023-05-07T07:50:50;3.33;;;2.30;;
1020;SDS011;499;42.648;23.270;2023-05-07T07:53:17;2.50;;;2.03;;
1020;SDS011;499;42.648;23.270;2023-05-07T07:55:46;2.57;;;1.90;;
1020;SDS011;499;42.648;23.270;2023-05-07T07:58:13;3.97;;;2.60;;
1020;SDS011;499;42.648;23.270;2023-05-07T08:00:40;3.07;;;2.40;;
1020;SDS011;499;42.648;23.270;2023-05-07T08:03:08;2.60;;;2.27;;
1020;SDS011;499;42.648;23.270;2023-05-07T08:05:35;3.60;;;1.90;;
1020;SDS011;499;42.648;23.270;2023-05-07T08:08:03;2.67;;;1.50;;
1020;SDS011;499;42.648;23.270;2023-05-07T08:10:31;3.30;;;1.63;;
1020;SDS011;499;42.648;23.270;2023-05-07T08:13:01;3.23;;;2.10;;
1020;SDS011;499;42.648;23.270;2023-05-07T08:15:28;2.13;;;1.60;;
1020;SDS011;499;42.648;23.270;2023-05-07T08:17:56;2.63;;;1.70;;
1020;SDS011;499;42.648;23.270;2023-05-07T08:20:25;1.97;;;1.77;;
1020;SDS011;499;42.648;23.270;2023-05-07T08:22:52;5.30;;;1.90;;
1020;SDS011;499;42.648;23.270;2023-05-07T08:25:19;2.43;;;1.30;;
1020;SDS011;499;42.648;23.270;2023-05-07T08:27:46;2.00;;;1.60;;
1020;SDS011;499;42.648;23.270;2023-05-07T08:30:14;3.60;;;2.20;;
1020;SDS011;499;42.648;23.270;2023-05-07T08:32:42;3.37;;;2.53;;
1020;SDS011;499;42.648;23.270;2023-05-07T08:35:09;1.93;;;1.30;;
1020;SDS011;499;42.648;23.270;2023-05-07T08:37:36;4.03;;;2.20;;
1020;SDS011;499;42.648;23.270;2023-05-07T08:40:03;5.70;;;1.93;;
1020;SDS011;499;42.648;23.270;2023-05-07T08:42:31;2.10;;;1.60;;
1020;SDS011;499;42.648;23.270;2023-05-07T08:45:02;2.07;;;1.87;;
1020;SDS011;499;42.648;23.270;2023-05-07T08:47:34;2.60;;;1.77;;
1020;SDS011;499;42.648;23.270;2023-05-07T08:50:08;2.47;;;2.00;;
1020;SDS011;499;42.648;23.270;2023-05-07T08:52:36;3.57;;;2.30;;
1020;SDS011;499;42.648;23.270;2023-05-07T08:55:04;3.53;;;2.67;;
1020;SDS011;499;42.648;23.270;2023-05-07T08:57:32;3.30;;;1.93;;
1020;SDS011;499;42.648;23.270;2023-05-07T08:59:59;3.40;;;1.97;;
1020;SDS011;499;42.648;23.270;2023-05-07T09:02:26;3.30;;;2.07;;
1020;SDS011;499;42.648;23.270;2023-05-07T09:04:55;2.87;;;1.80;;
1020;SDS011;499;42.648;23.270;2023-05-07T09:07:22;2.80;;;2.00;;
1020;SDS011;499;42.648;23.270;2023-05-07T09:09:49;3.00;;;1.80;;
1020;SDS011;499;42.648;23.270;2023-05-07T09:12:17;2.00;;;1.80;;
1020;SDS011;499;42.648;23.270;2023-05-07T09:14:44;2.07;;;1.53;;
1020;SDS011;499;42.648;23.270;2023-05-07T09:17:12;2.80;;;1.63;;
1020;SDS011;499;42.648;23.270;2023-05-07T09:19:39;2.20;;;1.60;;
1020;SDS011;499;42.648;23.270;2023-05-07T09:22:07;3.23;;;1.80;;
1020;SDS011;499;42.648;23.270;2023-05-07T09:24:34;2.73;;;1.40;;
1020;SDS011;499;42.648;23.270;2023-05-07T09:27:03;2.37;;;1.73;;
1020;SDS011;499;42.648;23.270;2023-05-07T09:29:30;2.57;;;1.73;;
1020;SDS011;499;42.648;23.270;2023-05-07T09:32:00;2.10;;;1.90;;
1020;SDS011;499;42.648;23.270;2023-05-07T09:34:28;2.30;;;1.57;;
1020;SDS011;499;42.648;23.270;2023-05-07T09:36:55;3.50;;;1.77;;
1020;SDS011;499;42.648;23.270;2023-05-07T09:39:24;2.37;;;1.33;;
1020;SDS011;499;42.648;23.270;2023-05-07T09:41:51;2.27;;;1.43;;
1020;SDS011;499;42.648;23.270;2023-05-07T09:44:20;1.80;;;1.03;;
1020;SDS011;499;42.648;23.270;2023-05-07T09:46:49;2.40;;;1.50;;
1020;SDS011;499;42.648;23.270;2023-05-07T09:49:21;2.23;;;1.67;;
1020;SDS011;499;42.648;23.270;2023-05-07T09:51:50;2.93;;;2.30;;
1020;SDS011;499;42.648;23.270;2023-05-07T09:54:18;2.63;;;1.30;;
1020;SDS011;499;42.648;23.270;2023-05-07T09:56:46;1.57;;;0.90;;
1020;SDS011;499;42.648;23.270;2023-05-07T09:59:15;2.60;;;1.63;;
1020;SDS011;499;42.648;23.270;2023-05-07T10:01:43;2.23;;;1.47;;
1020;SDS011;499;42.648;23.270;2023-05-07T10:04:11;2.60;;;1.47;;
1020;SDS011;499;42.648;23.270;2023-05-07T10:06:38;2.37;;;1.83;;
1020;SDS011;499;42.648;23.270;2023-05-07T10:09:06;1.63;;;1.30;;
1020;SDS011;499;42.648;23.270;2023-05-07T10:11:34;2.07;;;1.50;;
1020;SDS011;499;42.648;23.270;2023-05-07T10:14:03;1.70;;;1.40;;
1020;SDS011;499;42.648;23.270;2023-05-07T10:16:31;1.70;;;1.60;;
1020;SDS011;499;42.648;23.270;2023-05-07T10:19:02;4.00;;;2.23;;
1020;SDS011;499;42.648;23.270;2023-05-07T10:21:29;2.27;;;1.53;;
1020;SDS011;499;42.648;23.270;2023-05-07T10:23:58;2.40;;;1.77;;
1020;SDS011;499;42.648;23.270;2023-05-07T10:26:31;2.80;;;1.43;;
1020;SDS011;499;42.648;23.270;2023-05-07T10:28:59;2.20;;;1.40;;
1020;SDS011;499;42.648;23.270;2023-05-07T10:31:48;1.80;;;1.23;;
1020;SDS011;499;42.648;23.270;2023-05-07T10:34:22;1.60;;;1.30;;
1020;SDS011;499;42.648;23.270;2023-05-07T10:36:52;1.63;;;1.13;;
1020;SDS011;499;42.648;23.270;2023-05-07T10:39:21;1.80;;;1.40;;
1020;SDS011;499;42.648;23.270;2023-05-07T10:41:48;2.80;;;1.83;;
1020;SDS011;499;42.648;23.270;2023-05-07T10:44:26;1.93;;;1.37;;
1020;SDS011;499;42.648;23.270;2023-05-07T10:47:04;2.60;;;1.70;;
1020;SDS011;499;42.648;23.270;2023-05-07T10:49:34;3.40;;;2.00;;
1020;SDS011;499;42.648;23.270;2023-05-07T10:52:10;3.43;;;1.57;;
1020;SDS011;499;42.648;23.270;2023-05-07T10:54:38;2.23;;;1.17;;
1020;SDS011;499;42.648;23.270;2023-05-07T11:00:00;2.27;;;1.43;;
1020;SDS011;499;42.648;23.270;2023-05-07T11:05:28;3.20;;;1.60;;
1020;SDS011;499;42.648;23.270;2023-05-07T11:07:55;2.40;;;1.60;;
1020;SDS011;499;42.648;23.270;2023-05-07T11:10:26;2.87;;;1.80;;
1020;SDS011;499;42.648;23.270;2023-05-07T11:13:16;1.60;;;0.83;;
1020;SDS011;499;42.648;23.270;2023-05-07T11:15:45;3.13;;;1.80;;
1020;SDS011;499;42.648;23.270;2023-05-07T11:18:13;2.53;;;1.77;;
1020;SDS011;499;42.648;23.270;2023-05-07T11:20:45;1.60;;;1.23;;
1020;SDS011;499;42.648;23.270;2023-05-07T11:26:24;1.60;;;1.40;;
1020;SDS011;499;42.648;23.270;2023-05-07T11:28:52;1.40;;;1.00;;
1020;SDS011;499;42.648;23.270;2023-05-07T11:31:22;2.77;;;1.20;;
1020;SDS011;499;42.648;23.270;2023-05-07T11:33:51;2.33;;;1.70;;
1020;SDS011;499;42.648;23.270;2023-05-07T11:36:18;2.10;;;1.60;;
1020;SDS011;499;42.648;23.270;2023-05-07T11:38:46;2.80;;;1.70;;
1020;SDS011;499;42.648;23.270;2023-05-07T11:41:13;1.83;;;1.60;;
1020;SDS011;499;42.648;23.270;2023-05-07T11:43:55;2.23;;;1.60;;
1020;SDS011;499;42.648;23.270;2023-05-07T11:46:24;2.23;;;1.20;;
1020;SDS011;499;42.648;23.270;2023-05-07T11:48:51;2.50;;;1.90;;
1020;SDS011;499;42.648;23.270;2023-05-07T11:51:18;2.10;;;1.40;;
1020;SDS011;499;42.648;23.270;2023-05-07T11:53:46;2.50;;;1.90;;
1020;SDS011;499;42.648;23.270;2023-05-07T11:56:14;2.30;;;1.53;;
1020;SDS011;499;42.648;23.270;2023-05-07T11:58:43;1.40;;;0.90;;
1020;SDS011;499;42.648;23.270;2023-05-07T12:01:11;1.73;;;1.30;;
1020;SDS011;499;42.648;23.270;2023-05-07T12:03:41;2.50;;;2.10;;
1020;SDS011;499;42.648;23.270;2023-05-07T12:06:10;2.80;;;1.70;;
1020;SDS011;499;42.648;23.270;2023-05-07T12:08:39;1.40;;;1.13;;
1020;SDS011;499;42.648;23.270;2023-05-07T12:11:07;1.50;;;1.30;;
1020;SDS011;499;42.648;23.270;2023-05-07T12:13:36;2.60;;;1.70;;
1020;SDS011;499;42.648;23.270;2023-05-07T12:16:04;2.33;;;1.50;;
1020;SDS011;499;42.648;23.270;2023-05-07T12:18:32;2.70;;;2.13;;
1020;SDS011;499;42.648;23.270;2023-05-07T12:21:02;2.03;;;1.43;;
1020;SDS011;499;42.648;23.270;2023-05-07T12:23:32;2.10;;;1.80;;
1020;SDS011;499;42.648;23.270;2023-05-07T12:26:00;1.87;;;1.20;;
1020;SDS011;499;42.648;23.270;2023-05-07T12:28:27;1.70;;;1.20;;
1020;SDS011;499;42.648;23.270;2023-05-07T12:30:55;2.23;;;1.23;;
1020;SDS011;499;42.648;23.270;2023-05-07T12:33:23;2.60;;;1.67;;
1020;SDS011;499;42.648;23.270;2023-05-07T12:35:52;1.70;;;1.10;;
1020;SDS011;499;42.648;23.270;2023-05-07T12:38:22;1.50;;;1.03;;
1020;SDS011;499;42.648;23.270;2023-05-07T12:40:50;1.47;;;1.13;;
1020;SDS011;499;42.648;23.270;2023-05-07T12:43:20;2.50;;;1.27;;
1020;SDS011;499;42.648;23.270;2023-05-07T12:45:50;1.77;;;1.33;;
1020;SDS011;499;42.648;23.270;2023-05-07T12:48:19;2.23;;;1.50;;
1020;SDS011;499;42.648;23.270;2023-05-07T12:50:48;2.37;;;1.50;;
1020;SDS011;499;42.648;23.270;2023-05-07T12:53:16;3.10;;;1.50;;
1020;SDS011;499;42.648;23.270;2023-05-07T12:55:44;2.50;;;1.63;;
1020;SDS011;499;42.648;23.270;2023-05-07T12:58:16;1.60;;;1.20;;
1020;SDS011;499;42.648;23.270;2023-05-07T13:00:44;1.90;;;0.87;;
1020;SDS011;499;42.648;23.270;2023-05-07T13:03:16;2.70;;;1.50;;
1020;SDS011;499;42.648;23.270;2023-05-07T13:05:47;2.73;;;1.30;;
1020;SDS011;499;42.648;23.270;2023-05-07T13:08:23;1.90;;;1.40;;
1020;SDS011;499;42.648;23.270;2023-05-07T13:10:52;1.97;;;1.10;;
1020;SDS011;499;42.648;23.270;2023-05-07T13:13:19;1.80;;;1.17;;
1020;SDS011;499;42.648;23.270;2023-05-07T13:15:46;1.63;;;1.00;;
1020;SDS011;499;42.648;23.270;2023-05-07T13:18:13;1.97;;;1.17;;
1020;SDS011;499;42.648;23.270;2023-05-07T13:20:40;1.90;;;1.10;;
1020;SDS011;499;42.648;23.270;2023-05-07T13:23:07;1.40;;;0.90;;
1020;SDS011;499;42.648;23.270;2023-05-07T13:25:34;1.33;;;1.10;;
1020;SDS011;499;42.648;23.270;2023-05-07T13:28:03;1.80;;;1.53;;
1020;SDS011;499;42.648;23.270;2023-05-07T13:30:30;1.67;;;1.20;;
1020;SDS011;499;42.648;23.270;2023-05-07T13:32:57;1.73;;;1.30;;
1020;SDS011;499;42.648;23.270;2023-05-07T13:35:24;2.20;;;1.13;;
1020;SDS011;499;42.648;23.270;2023-05-07T13:37:51;1.67;;;1.13;;
1020;SDS011;499;42.648;23.270;2023-05-07T13:40:19;3.23;;;1.20;;
1020;SDS011;499;42.648;23.270;2023-05-07T13:42:46;1.93;;;1.23;;
1020;SDS011;499;42.648;23.270;2023-05-07T13:45:15;1.57;;;1.00;;
1020;SDS011;499;42.648;23.270;2023-05-07T13:47:42;2.13;;;1.50;;
1020;SDS011;499;42.648;23.270;2023-05-07T13:50:10;2.73;;;1.67;;
1020;SDS011;499;42.648;23.270;2023-05-07T13:52:38;3.77;;;2.20;;
1020;SDS011;499;42.648;23.270;2023-05-07T13:55:08;4.17;;;1.00;;
1020;SDS011;499;42.648;23.270;2023-05-07T13:57:35;1.90;;;1.20;;
1020;SDS011;499;42.648;23.270;2023-05-07T14:00:02;1.57;;;1.20;;
1020;SDS011;499;42.648;23.270;2023-05-07T14:02:32;1.43;;;0.90;;
1020;SDS011;499;42.648;23.270;2023-05-07T14:04:59;2.00;;;1.10;;
1020;SDS011;499;42.648;23.270;2023-05-07T14:07:26;1.37;;;0.80;;
1020;SDS011;499;42.648;23.270;2023-05-07T14:09:53;2.20;;;1.13;;
1020;SDS011;499;42.648;23.270;2023-05-07T14:12:20;2.83;;;1.30;;
1020;SDS011;499;42.648;23.270;2023-05-07T14:14:48;3.67;;;1.17;;
1020;SDS011;499;42.648;23.270;2023-05-07T14:17:15;1.90;;;1.63;;
1020;SDS011;499;42.648;23.270;2023-05-07T14:19:43;2.53;;;1.10;;
1020;SDS011;499;42.648;23.270;2023-05-07T14:22:10;2.17;;;1.97;;
1020;SDS011;499;42.648;23.270;2023-05-07T14:24:39;1.57;;;1.10;;
1020;SDS011;499;42.648;23.270;2023-05-07T14:27:06;1.70;;;0.90;;
1020;SDS011;499;42.648;23.270;2023-05-07T14:29:33;2.17;;;1.17;;
1020;SDS011;499;42.648;23.270;2023-05-07T14:32:01;2.03;;;0.93;;
1020;SDS011;499;42.648;23.270;2023-05-07T14:34:28;1.53;;;0.80;;
1020;SDS011;499;42.648;23.270;2023-05-07T14:36:57;1.60;;;1.00;;
1020;SDS011;499;42.648;23.270;2023-05-07T14:39:24;2.20;;;1.47;;
1020;SDS011;499;42.648;23.270;2023-05-07T14:41:51;2.03;;;1.27;;
1020;SDS011;499;42.648;23.270;2023-05-07T14:44:19;2.27;;;1.63;;
1020;SDS011;499;42.648;23.270;2023-05-07T14:46:46;1.50;;;1.00;;
1020;SDS011;499;42.648;23.270;2023-05-07T14:49:14;1.63;;;1.10;;
1020;SDS011;499;42.648;23.270;2023-05-07T14:51:42;2.17;;;1.20;;
1020;SDS011;499;42.648;23.270;2023-05-07T14:54:11;1.60;;;1.30;;
1020;SDS011;499;42.648;23.270;2023-05-07T14:56:39;2.17;;;1.33;;
1020;SDS011;499;42.648;23.270;2023-05-07T14:59:07;2.13;;;1.33;;
1020;SDS011;499;42.648;23.270;2023-05-07T15:01:34;1.97;;;1.17;;
1020;SDS011;499;42.648;23.270;2023-05-07T15:04:02;1.63;;;1.53;;
1020;SDS011;499;42.648;23.270;2023-05-07T15:06:30;1.67;;;0.93;;
1020;SDS011;499;42.648;23.270;2023-05-07T15:08:57;1.83;;;1.23;;
1020;SDS011;499;42.648;23.270;2023-05-07T15:11:25;1.63;;;1.07;;
1020;SDS011;499;42.648;23.270;2023-05-07T15:13:52;2.43;;;1.33;;
1020;SDS011;499;42.648;23.270;2023-05-07T15:16:19;2.27;;;1.43;;
1020;SDS011;499;42.648;23.270;2023-05-07T15:18:46;1.60;;;1.27;;
1020;SDS011;499;42.648;23.270;2023-05-07T15:21:15;1.33;;;0.93;;
1020;SDS011;499;42.648;23.270;2023-05-07T15:23:42;5.60;;;1.73;;
1020;SDS011;499;42.648;23.270;2023-05-07T15:26:10;2.40;;;1.30;;
1020;SDS011;499;42.648;23.270;2023-05-07T15:28:38;2.70;;;1.10;;